Time;durP1;ratioP1;P1;durP2;ratioP2;P2;SDS_P1;SDS_P2;PMS_P1;PMS_P2;Temp;Humidity;BMP_temperature;BMP_pressure;BME280_temperature;BME280_humidity;BME280_pressure;Samples;Min_cycle;Max_cycle;Signal;HPM_P1;HPM_P2
2022/06/15 00:02:11;;;;;;;6.75;3.05;;;14.60;99.90;;;;;;7396925;19;20023;-73
2022/06/15 00:04:40;;;;;;;5.05;3.10;;;14.40;99.90;;;;;;7396714;19;20109;-73
2022/06/15 00:07:09;;;;;;;5.32;3.25;;;14.40;99.90;;;;;;7394608;19;20021;-73
2022/06/15 00:09:38;;;;;;;7.60;3.30;;;14.30;99.90;;;;;;7395811;19;20034;-74
2022/06/15 00:12:08;;;;;;;5.47;2.92;;;14.40;99.90;;;;;;7392278;19;20503;-73
2022/06/15 00:14:37;;;;;;;5.50;3.50;;;14.40;99.90;;;;;;7394492;19;20017;-73
2022/06/15 00:17:06;;;;;;;5.40;3.15;;;14.20;99.90;;;;;;7393613;19;20388;-74
2022/06/15 00:19:38;;;;;;;9.07;3.72;;;14.10;99.90;;;;;;7395604;19;20039;-74
2022/06/15 00:22:07;;;;;;;7.55;3.20;;;14.20;99.90;;;;;;7393793;19;20024;-74
2022/06/15 00:24:36;;;;;;;8.43;3.90;;;14.10;99.90;;;;;;7395214;19;20090;-75
2022/06/15 00:27:05;;;;;;;7.65;3.47;;;14.20;99.90;;;;;;7394338;19;20026;-73
2022/06/15 00:29:37;;;;;;;8.27;3.58;;;14.10;99.90;;;;;;7394779;19;20392;-74
2022/06/15 00:32:07;;;;;;;6.85;3.47;;;14.30;99.90;;;;;;7394999;19;20010;-74
2022/06/15 00:34:39;;;;;;;7.53;3.55;;;13.90;99.90;;;;;;7394584;19;20082;-73
2022/06/15 00:37:08;;;;;;;7.07;3.90;;;;;;;;;;7392894;19;20489;-73
2022/06/15 00:39:38;;;;;;;6.93;3.53;;;14.20;99.90;;;;;;7394314;19;20070;-74
2022/06/15 00:42:08;;;;;;;9.40;3.67;;;14.00;99.90;;;;;;7394003;19;20031;-74
2022/06/15 00:44:39;;;;;;;5.85;3.20;;;13.90;99.90;;;;;;7386881;19;20010;-73
2022/06/15 00:47:14;;;;;;;6.25;3.50;;;13.90;99.90;;;;;;7387033;19;20018;-73
2022/06/15 00:49:50;;;;;;;5.93;3.50;;;14.00;99.90;;;;;;7389579;19;20033;-74
2022/06/15 00:52:24;;;;;;;5.88;3.38;;;13.90;99.90;;;;;;7389796;19;20022;-74
2022/06/15 00:54:53;;;;;;;6.30;3.28;;;13.80;99.90;;;;;;7393070;19;20015;-74
2022/06/15 00:57:23;;;;;;;8.20;3.75;;;13.90;99.90;;;;;;7397559;19;20082;-73
2022/06/15 00:59:56;;;;;;;5.95;3.78;;;13.70;99.90;;;;;;7392073;19;20014;-73
2022/06/15 01:02:25;;;;;;;7.00;3.40;;;13.80;99.90;;;;;;7389573;19;20043;-73
2022/06/15 01:05:00;;;;;;;5.68;3.53;;;13.90;99.90;;;;;;7393060;19;20045;-74
2022/06/15 01:08:01;;;;;;;6.10;3.45;;;13.80;99.90;;;;;;7393085;19;20351;-73
2022/06/15 01:10:43;;;;;;;6.35;3.67;;;13.80;99.90;;;;;;7392697;19;20018;-74
2022/06/15 01:13:29;;;;;;;6.35;3.55;;;13.90;99.90;;;;;;7398381;19;20033;-74
2022/06/15 01:16:03;;;;;;;6.55;3.72;;;13.70;99.90;;;;;;7399694;19;20069;-73
2022/06/15 01:18:38;;;;;;;5.70;3.63;;;13.70;99.90;;;;;;7400749;19;20010;-73
2022/06/15 01:21:20;;;;;;;5.88;3.30;;;13.70;99.90;;;;;;7397172;19;20518;-73
2022/06/15 01:24:25;;;;;;;7.50;3.63;;;13.70;99.90;;;;;;7400230;19;20010;-74
2022/06/15 01:27:07;;;;;;;4.88;3.45;;;13.50;99.90;;;;;;7399847;19;20007;-74
2022/06/15 01:30:08;;;;;;;7.38;3.40;;;13.60;99.90;;;;;;7399672;19;20082;-74
2022/06/15 01:32:43;;;;;;;5.38;3.67;;;13.40;99.90;;;;;;7401953;19;20022;-73
2022/06/15 01:35:21;;;;;;;7.53;3.65;;;13.50;99.90;;;;;;7401788;19;20023;-74
2022/06/15 01:37:58;;;;;;;6.45;3.97;;;13.50;99.90;;;;;;7395690;19;20018;-74
2022/06/15 01:40:33;;;;;;;5.82;3.60;;;13.50;99.90;;;;;;7398370;19;20014;-74
2022/06/15 01:43:06;;;;;;;7.93;3.80;;;13.50;99.90;;;;;;7400369;19;20018;-74
2022/06/15 01:45:40;;;;;;;7.88;3.58;;;13.50;99.90;;;;;;7400132;19;20362;-74
2022/06/15 01:48:14;;;;;;;7.03;3.50;;;13.20;99.90;;;;;;7401262;19;20100;-73
2022/06/15 01:50:47;;;;;;;8.00;4.00;;;13.40;99.90;;;;;;7399841;19;20038;-73
2022/06/15 01:53:21;;;;;;;7.38;3.75;;;13.30;99.90;;;;;;7398598;19;20019;-73
2022/06/15 01:55:54;;;;;;;6.65;4.05;;;13.40;99.90;;;;;;7396135;19;20674;-74
2022/06/15 01:58:28;;;;;;;7.70;4.15;;;13.30;99.90;;;;;;7400808;19;20014;-73
2022/06/15 02:01:07;;;;;;;5.97;3.63;;;13.30;99.90;;;;;;7396506;19;20018;-73
2022/06/15 02:03:43;;;;;;;7.72;3.60;;;13.30;99.90;;;;;;7399587;19;20279;-73
2022/06/15 02:06:20;;;;;;;6.38;4.20;;;12.90;99.90;;;;;;7398931;19;20047;-74
2022/06/15 02:08:56;;;;;;;9.98;3.85;;;13.20;99.90;;;;;;7398994;19;20370;-74
2022/06/15 02:11:32;;;;;;;9.20;3.50;;;13.10;99.90;;;;;;7398365;19;20074;-73
2022/06/15 02:14:05;;;;;;;9.38;4.22;;;13.10;99.90;;;;;;7398169;19;20018;-73
2022/06/15 02:16:42;;;;;;;6.32;3.47;;;13.30;99.90;;;;;;7397995;19;20003;-73
2022/06/15 02:19:16;;;;;;;5.72;3.75;;;12.80;99.90;;;;;;7399576;19;20019;-73
2022/06/15 02:21:47;;;;;;;5.32;3.70;;;13.00;99.90;;;;;;7398323;19;20019;-74
2022/06/15 02:24:19;;;;;;;7.07;4.05;;;13.00;99.90;;;;;;7395608;19;20010;-73
2022/06/15 02:26:48;;;;;;;6.95;3.58;;;13.00;99.90;;;;;;7402566;19;20090;-73
2022/06/15 02:29:21;;;;;;;6.25;3.67;;;12.90;99.90;;;;;;7399236;19;20018;-73
2022/06/15 02:31:56;;;;;;;7.43;4.30;;;12.90;99.90;;;;;;7400126;19;20024;-73
2022/06/15 02:34:25;;;;;;;6.10;3.60;;;12.90;99.90;;;;;;7398589;19;20014;-73
2022/06/15 02:36:54;;;;;;;7.07;3.25;;;13.00;99.90;;;;;;7396158;19;20070;-73
2022/06/15 02:39:23;;;;;;;6.78;3.85;;;12.90;99.90;;;;;;7400900;19;20078;-73
2022/06/15 02:42:00;;;;;;;7.53;3.92;;;12.80;99.90;;;;;;7398386;19;20035;-74
2022/06/15 02:44:33;;;;;;;8.18;4.10;;;12.80;99.90;;;;;;7399860;19;20022;-73
2022/06/15 02:47:05;;;;;;;8.73;3.72;;;12.90;99.90;;;;;;7399378;19;20010;-74
2022/06/15 02:49:34;;;;;;;8.82;3.95;;;12.80;99.90;;;;;;7396721;19;20021;-74
2022/06/15 02:52:06;;;;;;;7.95;3.90;;;12.50;99.90;;;;;;7399739;19;20020;-74
2022/06/15 02:54:40;;;;;;;7.28;4.10;;;12.80;99.90;;;;;;7395075;19;20010;-73
2022/06/15 02:57:09;;;;;;;5.68;3.97;;;;;;;;;;7396733;19;20018;-74
2022/06/15 02:59:38;;;;;;;5.93;4.00;;;13.00;99.90;;;;;;7397475;19;20539;-73
2022/06/15 03:02:14;;;;;;;7.32;4.25;;;12.80;99.90;;;;;;7396995;19;20035;-74
2022/06/15 03:04:43;;;;;;;8.40;4.67;;;12.70;99.90;;;;;;7397949;19;20074;-73
2022/06/15 03:07:12;;;;;;;9.50;4.70;;;12.70;99.90;;;;;;7396890;19;20315;-73
2022/06/15 03:09:41;;;;;;;12.85;4.22;;;12.70;99.90;;;;;;7399759;19;20400;-73
2022/06/15 03:12:12;;;;;;;7.65;4.43;;;12.60;99.90;;;;;;7396299;19;20496;-73
2022/06/15 03:14:41;;;;;;;10.48;4.85;;;12.70;99.90;;;;;;7398418;19;20032;-74
2022/06/15 03:17:12;;;;;;;9.57;4.63;;;12.70;99.90;;;;;;7396945;19;20018;-73
2022/06/15 03:19:43;;;;;;;8.05;4.35;;;12.60;99.90;;;;;;7396318;19;20015;-73
2022/06/15 03:22:12;;;;;;;9.98;4.75;;;12.60;99.90;;;;;;7396450;19;20011;-74
2022/06/15 03:24:40;;;;;;;7.50;4.80;;;12.60;99.90;;;;;;7397988;19;20047;-73
2022/06/15 03:27:09;;;;;;;7.50;4.70;;;12.60;99.90;;;;;;7395871;19;20010;-74
2022/06/15 03:29:38;;;;;;;8.07;4.60;;;12.60;99.90;;;;;;7395667;19;20014;-73
2022/06/15 03:32:12;;;;;;;8.30;4.85;;;12.60;99.90;;;;;;7395857;19;20010;-73
2022/06/15 03:34:44;;;;;;;10.02;4.95;;;12.60;99.90;;;;;;7394802;19;20363;-73
2022/06/15 03:37:14;;;;;;;7.85;4.68;;;12.60;99.90;;;;;;7394655;19;20019;-74
2022/06/15 03:39:43;;;;;;;8.70;4.65;;;12.50;99.90;;;;;;7399698;19;20010;-73
2022/06/15 03:42:16;;;;;;;6.93;4.60;;;12.40;99.90;;;;;;7395407;19;20015;-73
2022/06/15 03:44:45;;;;;;;9.43;4.78;;;12.60;99.90;;;;;;7396096;19;20023;-73
2022/06/15 03:47:17;;;;;;;8.88;5.05;;;12.60;99.90;;;;;;7396392;19;20014;-73
2022/06/15 03:49:49;;;;;;;9.30;4.75;;;12.60;99.90;;;;;;7394785;19;20010;-73
2022/06/15 03:52:19;;;;;;;7.28;4.60;;;12.60;99.90;;;;;;7399687;19;20018;-73
2022/06/15 03:54:48;;;;;;;7.78;4.32;;;12.60;99.90;;;;;;7391509;19;20034;-73
2022/06/15 03:57:20;;;;;;;9.68;4.90;;;12.70;99.90;;;;;;7398107;19;20065;-74
2022/06/15 03:59:49;;;;;;;7.80;4.13;;;12.70;99.90;;;;;;7394755;19;20039;-73
2022/06/15 04:02:19;;;;;;;6.57;4.65;;;12.70;99.90;;;;;;7394843;19;20171;-74
2022/06/15 04:04:50;;;;;;;11.40;4.47;;;12.80;99.90;;;;;;7396525;19;20014;-74
2022/06/15 04:10:00;;;;;;;6.55;4.25;;;13.00;99.90;;;;;;7396936;19;20582;-73
2022/06/15 04:12:29;;;;;;;9.80;4.55;;;12.80;99.90;;;;;;7395114;19;20018;-73
2022/06/15 04:15:01;;;;;;;8.48;3.60;;;12.90;99.90;;;;;;7392510;19;20410;-74
2022/06/15 04:17:30;;;;;;;9.05;4.28;;;12.90;99.90;;;;;;7396225;19;20027;-73
2022/06/15 04:22:42;;;;;;;8.43;4.10;;;13.10;99.90;;;;;;7394970;19;20022;-73
2022/06/15 04:25:12;;;;;;;8.02;3.72;;;13.10;99.90;;;;;;7396971;19;20014;-74
2022/06/15 04:27:41;;;;;;;8.48;4.10;;;13.30;99.90;;;;;;7393621;19;20538;-74
2022/06/15 04:30:14;;;;;;;6.22;3.47;;;13.20;99.90;;;;;;7396546;19;20018;-73
2022/06/15 04:32:43;;;;;;;7.35;3.42;;;13.10;99.90;;;;;;7394991;19;20026;-73
2022/06/15 04:35:15;;;;;;;7.38;3.00;;;13.30;99.90;;;;;;7392541;19;20025;-74
2022/06/15 04:37:44;;;;;;;5.22;3.50;;;13.40;99.90;;;;;;7389719;19;20086;-73
2022/06/15 04:40:15;;;;;;;5.53;3.33;;;13.40;99.90;;;;;;7393475;19;20379;-73
2022/06/15 04:42:45;;;;;;;5.63;3.10;;;13.30;99.90;;;;;;7394803;19;20019;-73
2022/06/15 04:45:15;;;;;;;5.80;3.00;;;13.30;99.90;;;;;;7398075;19;20015;-73
2022/06/15 04:47:44;;;;;;;7.10;3.33;;;13.30;99.90;;;;;;7392969;19;20014;-73
2022/06/15 04:50:16;;;;;;;4.72;2.85;;;13.50;99.90;;;;;;7393663;19;20011;-73
2022/06/15 04:52:46;;;;;;;5.97;3.47;;;13.40;99.90;;;;;;7395348;19;20014;-73
2022/06/15 04:55:19;;;;;;;7.85;3.72;;;13.50;99.90;;;;;;7394191;19;20017;-73
2022/06/15 04:57:53;;;;;;;8.82;3.60;;;13.50;99.90;;;;;;7390940;19;20082;-73
2022/06/15 05:00:26;;;;;;;5.22;3.10;;;13.50;99.90;;;;;;7393530;19;20369;-73
2022/06/15 05:02:56;;;;;;;8.13;3.88;;;13.30;99.90;;;;;;7393780;19;20029;-74
2022/06/15 05:05:28;;;;;;;6.53;3.38;;;13.60;99.90;;;;;;7396378;19;20011;-73
2022/06/15 05:07:57;;;;;;;6.93;4.13;;;13.70;99.90;;;;;;7391652;19;20624;-73
2022/06/15 05:10:27;;;;;;;6.20;3.65;;;13.60;99.90;;;;;;7392463;19;20026;-73
2022/06/15 05:12:57;;;;;;;7.97;3.58;;;13.60;99.90;;;;;;7395599;19;20428;-74
2022/06/15 05:15:26;;;;;;;8.15;3.60;;;13.60;99.90;;;;;;7396206;19;20021;-74
2022/06/15 05:17:55;;;;;;;11.32;3.92;;;13.60;99.90;;;;;;7393025;19;20530;-73
2022/06/15 05:20:23;;;;;;;9.20;3.85;;;13.70;99.90;;;;;;7393798;19;20018;-74
2022/06/15 05:22:56;;;;;;;6.53;3.60;;;13.60;99.90;;;;;;7393936;19;20034;-74
2022/06/15 05:25:27;;;;;;;6.60;3.85;;;13.80;99.90;;;;;;7391914;19;20007;-74
2022/06/15 05:27:55;;;;;;;9.18;3.80;;;13.80;99.90;;;;;;7391698;19;20060;-73
2022/06/15 05:30:25;;;;;;;7.78;3.65;;;13.80;99.90;;;;;;7392686;19;20015;-74
2022/06/15 05:32:53;;;;;;;7.97;4.00;;;13.80;99.90;;;;;;7393854;19;20015;-73
2022/06/15 05:35:22;;;;;;;8.05;3.38;;;14.00;99.90;;;;;;7392413;19;20348;-73
2022/06/15 05:37:51;;;;;;;6.00;3.50;;;14.00;99.90;;;;;;7390140;19;20047;-73
2022/06/15 05:40:23;;;;;;;7.80;3.00;;;14.00;99.90;;;;;;7394418;19;20020;-73
2022/06/15 05:42:52;;;;;;;10.27;4.25;;;14.00;99.90;;;;;;7392114;19;20031;-74
2022/06/15 05:45:21;;;;;;;6.03;3.30;;;14.00;99.90;;;;;;7392817;19;20018;-73
2022/06/15 05:47:50;;;;;;;7.28;2.85;;;14.20;99.90;;;;;;7392291;19;20019;-73
2022/06/15 05:50:19;;;;;;;8.48;3.30;;;14.10;99.90;;;;;;7394067;19;20013;-73
2022/06/15 05:52:48;;;;;;;7.35;3.53;;;14.20;99.90;;;;;;7391065;19;20014;-73
2022/06/15 05:55:17;;;;;;;7.60;3.55;;;14.30;99.90;;;;;;7390346;19;20025;-74
2022/06/15 05:57:48;;;;;;;8.82;3.13;;;14.30;99.90;;;;;;7394392;19;20105;-74
2022/06/15 06:00:19;;;;;;;9.00;3.88;;;14.30;99.90;;;;;;7397884;19;20014;-77
2022/06/15 06:02:59;;;;;;;5.03;3.10;;;14.30;99.90;;;;;;7402835;19;20017;-73
2022/06/15 06:05:28;;;;;;;7.30;3.72;;;14.50;99.90;;;;;;7396143;19;20023;-72
2022/06/15 06:07:57;;;;;;;8.05;3.90;;;14.50;99.90;;;;;;7398978;19;20026;-73
2022/06/15 06:10:26;;;;;;;6.32;3.75;;;14.50;99.90;;;;;;7400487;19;20039;-73
2022/06/15 06:12:58;;;;;;;8.82;3.85;;;14.50;99.90;;;;;;7398893;19;20098;-72
2022/06/15 06:15:27;;;;;;;6.75;3.42;;;14.20;99.90;;;;;;7396332;19;20015;-74
2022/06/15 06:17:56;;;;;;;6.10;3.40;;;14.40;99.90;;;;;;7398841;19;22364;-73
2022/06/15 06:20:24;;;;;;;10.20;3.75;;;14.50;99.90;;;;;;7400504;19;20026;-75
2022/06/15 06:22:53;;;;;;;8.50;3.67;;;14.70;99.90;;;;;;7389834;19;20033;-74
2022/06/15 06:25:22;;;;;;;6.88;3.40;;;14.70;99.90;;;;;;7397815;19;20022;-74
2022/06/15 06:27:51;;;;;;;6.30;3.20;;;14.70;99.90;;;;;;7398000;19;20078;-74
2022/06/15 06:30:23;;;;;;;5.45;3.45;;;14.70;99.90;;;;;;7397752;19;20343;-74
2022/06/15 06:32:52;;;;;;;8.88;4.18;;;14.50;99.90;;;;;;7397643;19;20494;-74
2022/06/15 06:35:21;;;;;;;4.57;3.08;;;14.80;99.90;;;;;;7400315;19;20014;-74
2022/06/15 06:37:50;;;;;;;5.95;3.20;;;15.00;99.90;;;;;;7400191;19;20022;-74
2022/06/15 06:40:19;;;;;;;7.32;3.17;;;14.90;99.90;;;;;;7397860;19;20539;-74
2022/06/15 06:42:49;;;;;;;8.27;3.65;;;15.00;99.90;;;;;;7396303;19;20014;-73
2022/06/15 06:45:18;;;;;;;7.53;3.65;;;15.50;99.90;;;;;;7396953;19;20039;-74
2022/06/15 06:47:50;;;;;;;9.18;3.47;;;14.50;99.90;;;;;;7395744;19;20019;-74
2022/06/15 06:50:19;;;;;;;8.10;3.78;;;14.90;99.90;;;;;;7399612;19;20344;-74
2022/06/15 06:52:48;;;;;;;7.78;3.83;;;15.00;99.90;;;;;;7396602;19;20018;-73
2022/06/15 06:55:17;;;;;;;6.80;3.38;;;14.70;99.90;;;;;;7396401;19;20481;-74
2022/06/15 06:57:46;;;;;;;8.45;3.33;;;15.00;99.90;;;;;;7398484;19;20014;-74
2022/06/15 07:00:17;;;;;;;5.97;2.97;;;15.10;99.90;;;;;;7398359;19;20483;-73
2022/06/15 07:02:46;;;;;;;8.23;3.17;;;15.10;99.90;;;;;;7396909;19;20078;-74
2022/06/15 07:05:18;;;;;;;5.25;3.22;;;15.20;99.90;;;;;;7396157;19;20018;-74
2022/06/15 07:07:49;;;;;;;6.57;3.22;;;15.10;99.90;;;;;;7393781;19;20081;-74
2022/06/15 07:10:18;;;;;;;6.65;3.65;;;15.30;99.90;;;;;;7391088;19;20025;-74
2022/06/15 07:12:47;;;;;;;6.70;3.50;;;15.30;99.90;;;;;;7395597;19;20030;-75
2022/06/15 07:15:17;;;;;;;6.82;3.42;;;15.40;99.90;;;;;;7397800;19;20033;-74
2022/06/15 07:17:46;;;;;;;6.68;3.25;;;15.60;99.90;;;;;;7398505;19;20019;-74
2022/06/15 07:20:18;;;;;;;6.47;2.88;;;15.70;99.90;;;;;;7395242;19;20019;-74
2022/06/15 07:22:47;;;;;;;7.47;3.10;;;15.50;99.90;;;;;;7394628;19;20426;-74
2022/06/15 07:25:17;;;;;;;7.88;3.05;;;15.70;99.90;;;;;;7398451;19;20031;-75
2022/06/15 07:27:46;;;;;;;6.60;3.05;;;15.80;99.90;;;;;;7396283;19;20709;-74
2022/06/15 07:30:20;;;;;;;8.15;3.15;;;15.70;99.90;;;;;;7398761;19;20475;-74
2022/06/15 07:32:49;;;;;;;6.88;3.30;;;16.00;99.90;;;;;;7398057;19;20018;-74
2022/06/15 07:35:23;;;;;;;6.82;2.95;;;15.90;99.90;;;;;;7396436;19;20034;-75
2022/06/15 07:37:53;;;;;;;7.35;3.22;;;16.00;99.90;;;;;;7398248;19;20352;-74
2022/06/15 07:40:24;;;;;;;8.25;3.10;;;16.00;99.90;;;;;;7401113;19;20022;-75
2022/06/15 07:42:54;;;;;;;6.75;3.08;;;16.00;99.90;;;;;;7392331;19;20632;-75
2022/06/15 07:45:25;;;;;;;5.95;2.60;;;16.00;99.90;;;;;;7394902;19;20018;-74
2022/06/15 07:50:38;;;;;;;4.95;2.67;;;16.10;99.90;;;;;;7393173;19;20014;-75
2022/06/15 07:53:10;;;;;;;7.45;2.40;;;16.30;99.90;;;;;;7395389;19;20015;-75
2022/06/15 07:55:43;;;;;;;5.47;2.40;;;16.30;99.90;;;;;;7392969;19;20071;-74
2022/06/15 07:58:12;;;;;;;8.00;2.20;;;16.50;99.90;;;;;;7393684;19;20014;-75
2022/06/15 08:00:44;;;;;;;6.60;2.60;;;16.50;99.90;;;;;;7397815;19;20476;-74
2022/06/15 08:03:14;;;;;;;6.45;2.40;;;16.60;99.90;;;;;;7393375;19;20094;-75
2022/06/15 08:05:48;;;;;;;4.60;2.30;;;16.60;99.90;;;;;;7390776;19;20028;-75
2022/06/15 08:08:21;;;;;;;5.35;2.47;;;16.60;99.90;;;;;;7392984;19;20022;-75
2022/06/15 08:10:50;;;;;;;5.60;2.83;;;16.80;99.90;;;;;;7394312;19;20018;-75
2022/06/15 08:13:21;;;;;;;6.22;2.72;;;16.60;99.90;;;;;;7396046;19;20031;-74
2022/06/15 08:15:52;;;;;;;6.68;2.47;;;16.70;99.90;;;;;;7390790;19;20022;-75
2022/06/15 08:18:24;;;;;;;9.85;2.70;;;16.70;99.90;;;;;;7393699;19;20014;-75
2022/06/15 08:20:59;;;;;;;5.28;2.70;;;16.70;99.90;;;;;;7391339;19;20023;-75
2022/06/15 08:23:31;;;;;;;5.15;2.45;;;16.90;99.90;;;;;;7392124;19;20363;-75
2022/06/15 08:26:03;;;;;;;8.98;2.70;;;17.00;99.90;;;;;;7392115;19;20035;-75
2022/06/15 08:28:36;;;;;;;5.68;2.65;;;16.90;99.90;;;;;;7396811;19;20065;-78
2022/06/15 08:31:05;;;;;;;5.93;2.55;;;16.90;99.90;;;;;;7393878;19;20047;-75
2022/06/15 08:33:34;;;;;;;3.55;2.20;;;16.90;99.90;;;;;;7395960;19;20014;-74
2022/06/15 08:36:09;;;;;;;5.50;2.53;;;17.00;99.90;;;;;;7393418;19;20019;-75
2022/06/15 08:38:38;;;;;;;7.17;3.30;;;16.90;99.90;;;;;;7391327;19;20015;-75
2022/06/15 08:41:12;;;;;;;5.88;2.63;;;16.90;99.90;;;;;;7391780;19;20029;-75
2022/06/15 08:43:57;;;;;;;7.43;2.80;;;16.90;99.90;;;;;;7391891;19;20014;-74
2022/06/15 08:46:35;;;;;;;7.78;2.90;;;17.00;99.90;;;;;;7393610;19;20023;-75
2022/06/15 08:49:20;;;;;;;8.50;2.70;;;16.90;99.90;;;;;;7391436;19;20353;-75
2022/06/15 08:51:58;;;;;;;6.27;2.77;;;17.00;99.90;;;;;;7395998;19;20018;-74
2022/06/15 08:54:32;;;;;;;6.88;2.50;;;17.00;99.90;;;;;;7392752;19;20330;-73
2022/06/15 08:57:12;;;;;;;8.10;2.80;;;17.40;99.90;;;;;;7392025;19;20018;-75
2022/06/15 08:59:47;;;;;;;6.95;3.00;;;17.00;99.90;;;;;;7392706;19;20397;-75
2022/06/15 09:02:24;;;;;;;5.80;2.70;;;17.20;99.90;;;;;;7393085;19;20485;-74
2022/06/15 09:04:59;;;;;;;6.78;2.63;;;16.90;99.90;;;;;;7392473;19;20092;-75
2022/06/15 09:07:51;;;;;;;3.97;2.23;;;17.20;99.90;;;;;;7391463;19;20039;-74
2022/06/15 09:10:35;;;;;;;7.35;2.15;;;17.10;99.90;;;;;;7392444;19;20275;-73
2022/06/15 09:13:16;;;;;;;4.80;2.50;;;15.30;99.90;;;;;;7392064;19;20031;-75
2022/06/15 09:15:54;;;;;;;4.05;2.45;;;17.40;99.90;;;;;;7391152;19;20019;-74
2022/06/15 09:18:29;;;;;;;4.43;2.35;;;17.30;99.90;;;;;;7394841;19;20467;-74
2022/06/15 09:21:04;;;;;;;3.67;2.20;;;17.30;99.90;;;;;;7390393;19;20035;-75
2022/06/15 09:23:43;;;;;;;5.25;2.85;;;17.40;99.90;;;;;;7393037;19;20033;-75
2022/06/15 09:26:18;;;;;;;4.72;2.22;;;17.40;99.90;;;;;;7391718;19;20006;-75
2022/06/15 09:28:54;;;;;;;6.25;3.10;;;17.50;99.90;;;;;;7391153;19;20043;-74
2022/06/15 09:31:28;;;;;;;4.97;2.35;;;17.50;99.90;;;;;;7393746;19;20022;-75
2022/06/15 09:34:02;;;;;;;5.85;2.70;;;17.80;99.90;;;;;;7394727;19;20018;-75
2022/06/15 09:36:34;;;;;;;4.75;2.25;;;17.70;99.90;;;;;;7400502;19;20014;-75
2022/06/15 09:39:06;;;;;;;5.13;2.55;;;18.10;99.90;;;;;;7400887;19;20466;-74
2022/06/15 09:41:42;;;;;;;5.65;2.70;;;18.00;99.90;;;;;;7399788;19;20014;-75
2022/06/15 09:44:19;;;;;;;7.88;2.75;;;17.70;99.90;;;;;;7396916;19;20487;-75
2022/06/15 09:46:53;;;;;;;6.78;3.17;;;17.70;99.90;;;;;;7398237;19;20361;-75
2022/06/15 09:49:37;;;;;;;6.88;3.17;;;17.60;99.90;;;;;;7400351;19;20356;-75
2022/06/15 09:52:12;;;;;;;4.43;2.70;;;17.50;99.90;;;;;;7400382;19;20094;-75
2022/06/15 09:54:48;;;;;;;;;;;17.60;99.90;;;;;;7400760;19;20378;-75
2022/06/15 09:57:18;;;;;;;3.87;2.70;;;17.60;99.90;;;;;;7391760;19;19919;-78
2022/06/15 09:59:47;;;;;;;8.13;2.78;;;17.80;99.90;;;;;;7391497;19;20480;-76
2022/06/15 10:02:22;;;;;;;8.23;3.10;;;17.70;99.90;;;;;;7400328;19;20014;-74
2022/06/15 10:04:51;;;;;;;6.93;2.67;;;17.60;99.90;;;;;;7399694;19;20017;-77
2022/06/15 10:07:28;;;;;;;3.17;2.53;;;17.80;99.90;;;;;;7400292;19;20033;-75
2022/06/15 10:10:21;;;;;;;6.70;2.88;;;18.10;99.90;;;;;;7398449;19;20344;-74
2022/06/15 10:12:59;;;;;;;7.22;2.70;;;18.20;99.90;;;;;;7395530;19;20053;-73
2022/06/15 10:15:36;;;;;;;4.88;2.50;;;18.20;99.90;;;;;;7395194;19;20031;-74
2022/06/15 10:18:25;;;;;;;5.53;3.22;;;18.30;99.70;;;;;;7392789;19;20090;-73
2022/06/15 10:21:05;;;;;;;5.78;2.55;;;18.30;99.30;;;;;;7401188;19;20021;-74
2022/06/15 10:23:43;;;;;;;5.85;3.00;;;18.40;98.50;;;;;;7396395;19;20014;-74
2022/06/15 10:26:28;;;;;;;4.63;2.60;;;17.40;99.20;;;;;;7396802;19;20011;-74
2022/06/15 10:28:59;;;;;;;7.15;2.70;;;18.50;99.90;;;;;;7397220;19;20039;-73
2022/06/15 10:31:32;;;;;;;6.32;2.75;;;18.80;98.70;;;;;;7398215;19;20026;-74
2022/06/15 10:34:18;;;;;;;12.88;3.90;;;18.70;97.80;;;;;;7398922;19;20043;-74
2022/06/15 10:36:55;;;;;;;5.47;2.20;;;18.90;98.60;;;;;;7400455;19;20035;-74
2022/06/15 10:39:27;;;;;;;4.90;2.35;;;19.10;97.90;;;;;;7396441;19;20006;-74
2022/06/15 10:42:08;;;;;;;4.78;3.20;;;19.10;97.80;;;;;;7394731;19;20018;-74
2022/06/15 10:44:40;;;;;;;6.18;2.88;;;19.20;96.40;;;;;;7392484;19;20028;-73
2022/06/15 10:47:20;;;;;;;5.35;3.13;;;19.20;97.00;;;;;;7395524;19;20022;-73
2022/06/15 10:49:53;;;;;;;6.68;3.13;;;19.40;97.20;;;;;;7395770;19;20043;-74
2022/06/15 10:52:27;;;;;;;6.43;3.17;;;19.20;96.70;;;;;;7396591;19;20022;-73
2022/06/15 11:03:37;;;;;;;7.22;2.85;;;19.00;95.80;;;;;;7392309;19;20078;-73
2022/06/15 11:06:06;;;;;;;5.18;2.85;;;18.90;95.90;;;;;;7395320;19;20014;-73
2022/06/15 11:08:37;;;;;;;4.97;2.63;;;19.20;94.30;;;;;;7391426;19;20523;-73
2022/06/15 11:11:20;;;;;;;8.45;3.08;;;19.20;94.70;;;;;;7391854;19;20480;-74
2022/06/15 11:14:00;;;;;;;4.90;2.40;;;19.30;95.70;;;;;;7398239;19;20368;-73
2022/06/15 11:19:16;;;;;;;5.25;2.55;;;19.70;95.30;;;;;;7399046;19;20399;-74
2022/06/15 11:21:51;;;;;;;11.32;3.00;;;19.90;95.50;;;;;;7395230;19;20122;-73
2022/06/15 11:24:31;;;;;;;5.40;2.25;;;20.10;93.80;;;;;;7395873;19;20019;-74
2022/06/15 11:27:05;;;;;;;6.63;2.35;;;20.10;94.00;;;;;;7393733;19;20351;-74
2022/06/15 11:29:48;;;;;;;5.10;2.50;;;20.10;94.50;;;;;;7397991;19;20039;-73
2022/06/15 11:32:25;;;;;;;4.05;2.35;;;20.30;93.40;;;;;;7396044;19;20078;-74
2022/06/15 11:35:03;;;;;;;4.95;2.30;;;20.10;92.70;;;;;;7397449;19;20025;-74
2022/06/15 11:37:37;;;;;;;5.05;2.25;;;20.40;93.80;;;;;;7388557;19;20487;-74
2022/06/15 11:40:16;;;;;;;6.90;1.90;;;20.50;94.20;;;;;;7394198;19;20015;-73
2022/06/15 11:42:49;;;;;;;5.60;2.25;;;20.40;94.50;;;;;;7389745;19;20022;-74
2022/06/15 11:45:24;;;;;;;4.60;2.40;;;20.70;94.90;;;;;;7388762;19;21144;-74
2022/06/15 11:48:08;;;;;;;4.80;2.13;;;20.70;94.50;;;;;;7395559;19;20018;-74
2022/06/15 11:50:43;;;;;;;3.30;2.10;;;20.70;94.70;;;;;;7392953;19;20330;-75
2022/06/15 11:53:24;;;;;;;6.03;2.30;;;20.60;94.60;;;;;;7395305;19;20082;-73
2022/06/15 11:55:59;;;;;;;6.30;2.53;;;20.80;95.00;;;;;;7389744;19;20022;-74
2022/06/15 11:58:37;;;;;;;4.70;2.10;;;20.90;94.10;;;;;;7391066;19;20015;-74
2022/06/15 12:01:19;;;;;;;4.70;2.40;;;21.20;94.90;;;;;;7387439;19;20478;-74
2022/06/15 12:04:13;;;;;;;6.00;2.30;;;21.50;93.80;;;;;;7391520;19;20086;-74
2022/06/15 12:06:55;;;;;;;4.85;2.13;;;21.20;93.60;;;;;;7392587;19;20017;-74
2022/06/15 12:09:33;;;;;;;6.20;2.30;;;21.20;93.50;;;;;;7392389;19;20422;-73
2022/06/15 12:14:55;;;;;;;6.22;2.55;;;21.60;93.70;;;;;;7371740;19;20092;-74
2022/06/15 12:17:32;;;;;;;5.18;2.67;;;21.70;92.70;;;;;;7394115;19;20024;-75
2022/06/15 12:20:07;;;;;;;6.18;2.55;;;21.80;92.70;;;;;;7393655;19;20097;-74
2022/06/15 12:22:42;;;;;;;5.37;2.27;;;21.70;92.50;;;;;;7394026;19;20130;-74
2022/06/15 12:25:20;;;;;;;6.53;2.58;;;21.90;93.40;;;;;;7387296;19;20014;-74
2022/06/15 12:27:53;;;;;;;4.85;3.00;;;22.10;92.50;;;;;;7391971;19;20035;-74
2022/06/15 12:30:36;;;;;;;6.22;2.63;;;22.10;92.80;;;;;;7380657;19;20043;-74
2022/06/15 12:33:18;;;;;;;4.32;2.60;;;22.00;91.60;;;;;;7390466;19;20022;-74
2022/06/15 12:35:52;;;;;;;6.18;2.40;;;22.20;91.80;;;;;;7393598;19;20050;-74
2022/06/15 12:38:25;;;;;;;5.97;2.85;;;22.00;91.10;;;;;;7395139;19;20029;-74
2022/06/15 12:41:01;;;;;;;5.28;2.40;;;22.40;91.60;;;;;;7393051;19;20010;-72
2022/06/15 12:43:36;;;;;;;5.25;3.10;;;22.30;91.50;;;;;;7395888;19;20047;-72
2022/06/15 12:46:13;;;;;;;6.28;2.75;;;22.50;90.60;;;;;;7393840;19;20338;-72
2022/06/15 12:49:05;;;;;;;5.63;2.92;;;22.70;91.40;;;;;;7392807;19;20018;-74
2022/06/15 12:51:42;;;;;;;7.82;2.90;;;22.80;89.90;;;;;;7391443;19;20010;-74
2022/06/15 12:54:18;;;;;;;4.05;2.58;;;23.00;90.00;;;;;;7391424;19;20010;-74
2022/06/15 12:56:55;;;;;;;5.32;2.45;;;22.80;88.50;;;;;;7391667;19;20085;-74
2022/06/15 12:59:40;;;;;;;5.38;2.40;;;23.00;90.40;;;;;;7391000;19;20502;-74
2022/06/15 13:02:14;;;;;;;6.03;2.85;;;23.40;89.10;;;;;;7393551;19;20025;-74
2022/06/15 13:04:57;;;;;;;5.72;2.60;;;23.60;87.50;;;;;;7391271;19;20013;-74
2022/06/15 13:07:31;;;;;;;8.10;2.95;;;23.40;86.70;;;;;;7389652;19;20029;-74
2022/06/15 13:10:35;;;;;;;7.20;2.80;;;23.50;85.60;;;;;;7397217;19;20043;-75
2022/06/15 13:13:07;;;;;;;5.78;2.78;;;23.60;86.80;;;;;;7397245;19;20043;-74
2022/06/15 13:15:54;;;;;;;5.70;3.00;;;24.00;86.80;;;;;;7396973;19;20090;-74
2022/06/15 13:18:50;;;;;;;4.80;2.30;;;23.80;83.80;;;;;;7403769;19;20032;-75
2022/06/15 13:21:26;;;;;;;6.45;2.50;;;24.00;84.30;;;;;;7395215;19;20070;-75
2022/06/15 13:24:06;;;;;;;5.50;2.55;;;23.80;83.60;;;;;;7400208;19;20030;-74
2022/06/15 13:26:55;;;;;;;4.43;2.60;;;24.10;84.10;;;;;;7402942;19;20030;-74
2022/06/15 13:29:29;;;;;;;5.72;2.83;;;24.20;79.60;;;;;;7402394;19;20011;-74
2022/06/15 13:32:01;;;;;;;7.55;2.63;;;24.20;80.30;;;;;;7399193;19;20010;-74
2022/06/15 13:34:49;;;;;;;7.15;2.60;;;24.00;79.20;;;;;;7401892;19;20023;-75
2022/06/15 13:37:35;;;;;;;4.80;2.40;;;24.00;79.40;;;;;;7399357;19;20018;-75
2022/06/15 13:40:09;;;;;;;6.18;2.70;;;24.20;80.90;;;;;;7399378;19;20031;-74
2022/06/15 13:42:42;;;;;;;7.40;2.60;;;24.40;79.90;;;;;;7398991;19;20011;-76
2022/06/15 13:45:18;;;;;;;5.57;2.47;;;24.40;76.70;;;;;;7396740;19;20031;-74